createdAt,value
2022-08-14T00:01:36.799Z,73.30
2022-08-14T00:04:32.157Z,73.90
2022-08-14T00:06:50.929Z,73.20
2022-08-14T00:09:17.909Z,73.60
2022-08-14T00:11:46.987Z,74.00
2022-08-14T00:14:17.415Z,73.50
2022-08-14T00:16:44.799Z,73.40
2022-08-14T00:19:19.406Z,74.10
2022-08-14T00:21:50.329Z,74.10
2022-08-14T00:24:23.388Z,74.60
2022-08-14T00:26:57.444Z,76.60
2022-08-14T00:29:30.052Z,76.30
2022-08-14T00:32:00.272Z,75.60
2022-08-14T00:34:47.329Z,75.20
2022-08-14T00:37:15.860Z,75.30
2022-08-14T00:39:43.523Z,76.40
2022-08-14T00:42:52.924Z,75.00
2022-08-14T00:44:57.985Z,75.60
2022-08-14T00:47:24.862Z,76.80
2022-08-14T00:49:56.278Z,77.00
2022-08-14T00:52:25.406Z,76.30
2022-08-14T00:54:58.076Z,75.90
2022-08-14T00:57:26.332Z,77.00
2022-08-14T00:59:56.818Z,76.80
2022-08-14T01:02:28.173Z,76.90
2022-08-14T01:04:59.037Z,76.80
2022-08-14T01:07:27.211Z,77.40
2022-08-14T01:09:56.757Z,78.40
2022-08-14T01:12:26.855Z,78.10
2022-08-14T01:15:02.145Z,78.00
2022-08-14T01:17:51.712Z,78.10
2022-08-14T01:20:39.703Z,77.40
2022-08-14T01:23:16.613Z,78.80
2022-08-14T01:25:51.370Z,78.50
2022-08-14T01:28:46.383Z,78.60
2022-08-14T01:31:08.693Z,78.20
2022-08-14T01:33:44.666Z,79.00
2022-08-14T01:36:28.648Z,79.60
2022-08-14T01:38:58.013Z,78.80
2022-08-14T01:41:30.233Z,79.00
2022-08-14T01:44:05.785Z,79.30
2022-08-14T01:46:57.988Z,79.70
2022-08-14T01:49:35.801Z,79.10
2022-08-14T01:52:13.408Z,78.80
2022-08-14T01:55:01.492Z,78.80
2022-08-14T01:57:49.550Z,79.50
2022-08-14T02:00:19.388Z,79.40
2022-08-14T02:02:48.577Z,79.90
2022-08-14T02:05:19.929Z,80.50
2022-08-14T02:07:55.658Z,81.30
2022-08-14T02:10:29.285Z,79.60
2022-08-14T02:12:57.652Z,81.60
2022-08-14T02:15:26.510Z,81.30
2022-08-14T02:17:53.889Z,80.90
2022-08-14T02:20:23.466Z,80.50
2022-08-14T02:22:54.693Z,80.00
2022-08-14T02:25:22.507Z,80.20
2022-08-14T02:28:25.584Z,79.60
2022-08-14T02:30:45.365Z,79.80
2022-08-14T02:33:12.218Z,80.30
2022-08-14T02:35:43.411Z,80.70
2022-08-14T02:38:11.820Z,80.50
2022-08-14T02:40:53.901Z,80.90
2022-08-14T02:43:23.742Z,82.00
2022-08-14T02:45:50.703Z,80.90
2022-08-14T02:49:04.728Z,81.30
2022-08-14T02:51:05.643Z,81.30
2022-08-14T02:53:33.589Z,82.80
2022-08-14T02:56:04.731Z,81.50
2022-08-14T02:58:55.617Z,82.20
2022-08-14T03:01:24.179Z,82.20
2022-08-14T03:03:58.303Z,81.90
2022-08-14T03:06:48.952Z,83.20
2022-08-14T03:09:12.979Z,82.00
2022-08-14T03:11:44.588Z,82.80
2022-08-14T03:14:12.397Z,83.30
2022-08-14T03:16:42.715Z,84.20
2022-08-14T03:19:11.887Z,83.90
2022-08-14T03:21:40.632Z,83.90
2022-08-14T03:24:21.558Z,83.40
2022-08-14T03:26:57.355Z,83.50
2022-08-14T03:29:27.825Z,83.80
2022-08-14T03:31:58.546Z,83.50
2022-08-14T03:34:48.321Z,83.40
2022-08-14T03:37:38.433Z,83.70
2022-08-14T03:40:04.306Z,82.70
2022-08-14T03:42:36.545Z,82.90
2022-08-14T03:45:26.418Z,82.90
2022-08-14T03:47:56.156Z,83.00
2022-08-14T03:50:27.651Z,82.60
2022-08-14T03:52:57.257Z,83.20
2022-08-14T03:55:28.617Z,83.10
2022-08-14T03:57:57.719Z,83.90
2022-08-14T04:00:43.154Z,84.20
2022-08-14T04:03:18.079Z,84.10
2022-08-14T04:05:48.448Z,84.20
2022-08-14T04:08:22.822Z,83.80
2022-08-14T04:10:57.603Z,84.50
2022-08-14T04:13:27.878Z,84.70
2022-08-14T04:16:01.978Z,84.50
2022-08-14T04:18:33.914Z,84.60
2022-08-14T04:21:01.486Z,84.70
2022-08-14T04:23:30.353Z,83.60
2022-08-14T04:26:00.973Z,84.90
2022-08-14T04:29:07.408Z,84.50
2022-08-14T04:31:17.841Z,85.30
2022-08-14T04:33:53.075Z,85.30
2022-08-14T04:36:21.412Z,84.60
2022-08-14T04:39:09.922Z,84.80
2022-08-14T04:41:57.981Z,85.20
2022-08-14T04:44:26.718Z,84.20
2022-08-14T04:47:23.808Z,84.20
2022-08-14T04:49:57.433Z,84.00
2022-08-14T04:52:25.439Z,83.80
2022-08-14T04:54:52.459Z,83.10
2022-08-14T04:57:21.878Z,83.80
2022-08-14T04:59:50.885Z,84.00
2022-08-14T05:02:17.999Z,84.00
2022-08-14T05:04:45.220Z,83.80
2022-08-14T05:07:46.642Z,83.20
2022-08-14T05:10:16.692Z,83.10
2022-08-14T05:13:12.633Z,83.10
2022-08-14T05:15:39.468Z,83.00
2022-08-14T05:18:17.259Z,83.00
2022-08-14T05:21:55.432Z,83.00
2022-08-14T05:23:52.116Z,83.00
2022-08-14T05:26:21.817Z,83.00
2022-08-14T05:28:48.635Z,82.80
2022-08-14T05:31:20.612Z,82.80
2022-08-14T05:33:56.647Z,82.30
2022-08-14T05:36:27.082Z,82.40
2022-08-14T05:38:54.181Z,82.30
2022-08-14T05:41:22.305Z,81.90
2022-08-14T05:43:49.547Z,81.00
2022-08-14T05:46:19.142Z,80.20
2022-08-14T05:48:49.709Z,79.60
2022-08-14T05:51:16.625Z,78.80
2022-08-14T05:53:43.564Z,77.00
2022-08-14T05:56:28.465Z,75.10
2022-08-14T05:58:56.207Z,71.60
2022-08-14T06:01:23.537Z,69.60
2022-08-14T06:03:51.174Z,68.10
2022-08-14T06:06:21.719Z,66.00
2022-08-14T06:08:48.484Z,65.50
2022-08-14T06:11:20.392Z,64.40
2022-08-14T06:13:56.205Z,63.20
2022-08-14T06:16:23.114Z,62.30
2022-08-14T06:18:52.911Z,61.90
2022-08-14T06:21:23.896Z,61.30
2022-08-14T06:23:51.467Z,60.60
2022-08-14T06:26:20.701Z,60.50
2022-08-14T06:28:52.255Z,61.50
2022-08-14T06:31:19.670Z,61.00
2022-08-14T06:35:09.970Z,60.90
2022-08-14T06:36:37.336Z,61.30
2022-08-14T06:39:04.285Z,61.30
2022-08-14T06:41:57.930Z,60.30
2022-08-14T06:44:30.642Z,59.30
2022-08-14T06:47:07.096Z,59.60
2022-08-14T06:49:44.103Z,59.70
2022-08-14T06:52:16.189Z,59.30
2022-08-14T06:54:44.010Z,58.80
2022-08-14T06:57:11.576Z,58.30
2022-08-14T06:59:39.944Z,57.90
2022-08-14T07:02:28.770Z,56.80
2022-08-14T07:05:20.895Z,57.10
2022-08-14T07:07:48.759Z,56.50
2022-08-14T07:10:17.164Z,56.20
2022-08-14T07:12:56.514Z,55.20
2022-08-14T07:15:42.217Z,54.50
2022-08-14T07:18:10.341Z,53.90
2022-08-14T07:20:38.373Z,53.10
2022-08-14T07:23:09.239Z,52.10
2022-08-14T07:25:39.319Z,52.00
2022-08-14T07:28:20.351Z,50.70
2022-08-14T07:30:50.796Z,50.10
2022-08-14T07:33:24.372Z,50.10
2022-08-14T07:35:58.201Z,49.80
2022-08-14T07:38:32.128Z,49.30
2022-08-14T07:41:03.545Z,49.40
2022-08-14T07:43:40.072Z,49.50
2022-08-14T07:46:07.761Z,49.40
2022-08-14T07:48:43.969Z,48.00
2022-08-14T07:51:18.338Z,47.40
2022-08-14T07:53:47.057Z,46.90
2022-08-14T07:56:43.890Z,47.10
2022-08-14T07:59:00.834Z,47.80
2022-08-14T08:01:27.877Z,48.30
2022-08-14T08:04:00.179Z,45.50
2022-08-14T08:06:28.482Z,45.90
2022-08-14T08:09:00.961Z,45.30
2022-08-14T08:11:37.382Z,45.60
2022-08-14T08:14:10.766Z,44.70
2022-08-14T08:16:45.743Z,45.00
2022-08-14T08:19:14.128Z,43.90
2022-08-14T08:21:43.758Z,43.60
2022-08-14T08:24:18.449Z,43.20
2022-08-14T08:26:45.558Z,43.60
2022-08-14T08:29:18.799Z,43.60
2022-08-14T08:31:51.991Z,41.30
2022-08-14T08:34:19.625Z,40.70
2022-08-14T08:36:50.634Z,42.70
2022-08-14T08:39:22.881Z,41.70
2022-08-14T08:41:53.272Z,42.60
2022-08-14T08:44:31.593Z,42.80
2022-08-14T08:47:06.432Z,41.80
2022-08-14T08:49:53.014Z,40.60
2022-08-14T08:52:31.727Z,39.90
2022-08-14T08:55:00.818Z,39.70
2022-08-14T08:57:33.652Z,39.90
2022-08-14T09:00:01.433Z,39.90
2022-08-14T09:02:29.463Z,38.40
2022-08-14T09:05:02.399Z,38.30
2022-08-14T09:07:31.147Z,38.50
2022-08-14T09:09:59.563Z,38.50
2022-08-14T09:12:31.665Z,38.40
2022-08-14T09:15:13.721Z,39.20
2022-08-14T09:17:41.313Z,39.00
2022-08-14T09:20:11.537Z,40.40
2022-08-14T09:22:42.420Z,37.50
2022-08-14T09:25:15.716Z,37.20
2022-08-14T09:27:42.787Z,37.00
2022-08-14T09:30:31.264Z,37.70
2022-08-14T09:33:09.250Z,37.90
2022-08-14T09:35:38.999Z,37.80
2022-08-14T09:38:25.914Z,37.70
2022-08-14T09:41:11.703Z,38.00
2022-08-14T09:43:48.918Z,38.00
2022-08-14T09:46:21.335Z,37.60
2022-08-14T09:49:02.954Z,37.40
2022-08-14T09:51:45.105Z,37.90
2022-08-14T09:54:23.536Z,38.10
2022-08-14T09:56:56.949Z,36.90
2022-08-14T09:59:33.536Z,36.70
2022-08-14T10:02:03.986Z,37.20
2022-08-14T10:04:37.588Z,35.50
2022-08-14T10:07:05.528Z,36.10
2022-08-14T10:09:33.328Z,36.90
2022-08-14T10:12:00.818Z,38.50
2022-08-14T10:14:36.945Z,36.80
2022-08-14T10:17:06.300Z,36.50
2022-08-14T10:19:35.267Z,35.50
2022-08-14T10:23:12.745Z,35.10
2022-08-14T10:24:56.488Z,34.00
2022-08-14T10:27:26.660Z,35.00
2022-08-14T10:29:55.071Z,35.80
2022-08-14T10:32:28.438Z,36.10
2022-08-14T10:35:05.691Z,37.10
2022-08-14T10:37:46.410Z,35.70
2022-08-14T10:40:37.731Z,36.60
2022-08-14T10:43:02.708Z,36.50
2022-08-14T10:45:33.975Z,35.60
2022-08-14T10:48:24.279Z,35.50
2022-08-14T10:51:01.141Z,35.70
2022-08-14T10:53:29.409Z,35.30
2022-08-14T10:56:04.214Z,35.10
2022-08-14T10:58:34.285Z,35.60
2022-08-14T11:01:08.021Z,35.70
2022-08-14T11:03:55.651Z,35.50
2022-08-14T11:06:24.908Z,35.20
2022-08-14T11:08:58.315Z,35.50
2022-08-14T11:11:28.631Z,34.40
2022-08-14T11:14:09.590Z,35.30
2022-08-14T11:16:53.479Z,34.80
2022-08-14T11:19:21.680Z,35.00
2022-08-14T11:21:56.094Z,35.70
2022-08-14T11:24:50.951Z,35.90
2022-08-14T11:27:16.518Z,34.50
2022-08-14T11:29:48.464Z,35.20
2022-08-14T11:32:20.360Z,34.60
2022-08-14T11:34:47.026Z,34.50
2022-08-14T11:37:20.741Z,34.20
2022-08-14T11:39:54.227Z,34.60
2022-08-14T11:42:57.688Z,34.80
2022-08-14T11:45:17.157Z,34.00
2022-08-14T11:48:12.796Z,33.20
2022-08-14T11:50:37.951Z,32.90
2022-08-14T11:53:08.035Z,32.70
2022-08-14T11:55:39.778Z,32.50
2022-08-14T11:58:11.334Z,33.70
2022-08-14T12:00:53.740Z,34.10
2022-08-14T12:03:37.767Z,34.40
2022-08-14T12:06:29.577Z,34.00
2022-08-14T12:09:00.096Z,33.40
2022-08-14T12:11:38.217Z,33.40
2022-08-14T12:14:13.297Z,33.50
2022-08-14T12:17:04.189Z,32.40
2022-08-14T12:19:33.650Z,33.10
2022-08-14T12:22:02.586Z,32.90
2022-08-14T12:24:35.829Z,33.40
2022-08-14T12:27:04.182Z,33.10
2022-08-14T12:29:32.035Z,33.10
2022-08-14T12:32:04.501Z,33.00
2022-08-14T12:34:32.470Z,32.70
2022-08-14T12:37:05.623Z,32.20
2022-08-14T12:39:40.325Z,31.60
2022-08-14T12:42:07.901Z,32.10
2022-08-14T12:44:39.084Z,32.40
2022-08-14T12:47:06.258Z,32.00
2022-08-14T12:49:34.161Z,31.40
2022-08-14T12:52:02.959Z,31.50
2022-08-14T12:54:32.103Z,31.20
2022-08-14T12:57:04.436Z,32.10
2022-08-14T12:59:37.024Z,31.90
2022-08-14T13:02:21.333Z,32.50
2022-08-14T13:04:53.175Z,32.60
2022-08-14T13:07:20.859Z,32.20
2022-08-14T13:09:54.445Z,32.20
2022-08-14T13:12:34.833Z,32.90
2022-08-14T13:15:13.860Z,32.80
2022-08-14T13:17:43.333Z,31.90
2022-08-14T13:20:24.447Z,32.20
2022-08-14T13:22:53.183Z,32.80
2022-08-14T13:25:21.179Z,31.40
2022-08-14T13:27:49.482Z,30.80
2022-08-14T13:30:21.362Z,30.80
2022-08-14T13:32:50.834Z,32.30
2022-08-14T13:35:17.851Z,32.90
2022-08-14T13:37:52.324Z,32.20
2022-08-14T13:40:21.452Z,32.10
2022-08-14T13:42:55.241Z,32.30
2022-08-14T13:45:33.584Z,32.00
2022-08-14T13:48:27.267Z,31.90
2022-08-14T13:50:59.311Z,31.60
2022-08-14T13:53:33.428Z,33.10
2022-08-14T13:56:02.247Z,32.10
2022-08-14T13:58:34.637Z,33.20
2022-08-14T14:01:04.327Z,32.60
2022-08-14T14:03:35.264Z,33.40
2022-08-14T14:06:02.968Z,32.80
2022-08-14T14:08:46.182Z,32.80
2022-08-14T14:11:20.982Z,33.20
2022-08-14T14:13:48.512Z,33.50
2022-08-14T14:16:21.820Z,33.00
2022-08-14T14:19:06.705Z,32.90
2022-08-14T14:21:36.212Z,33.20
2022-08-14T14:24:04.961Z,33.50
2022-08-14T14:26:33.398Z,33.70
2022-08-14T14:29:03.877Z,33.60
2022-08-14T14:31:31.124Z,33.40
2022-08-14T14:34:00.802Z,33.30
2022-08-14T14:36:28.731Z,32.50
2022-08-14T14:38:57.863Z,31.90
2022-08-14T14:41:27.241Z,33.20
2022-08-14T14:44:09.527Z,32.10
2022-08-14T14:46:41.638Z,33.30
2022-08-14T14:49:14.453Z,32.40
2022-08-14T14:51:46.871Z,33.00
2022-08-14T14:54:18.853Z,32.70
2022-08-14T14:56:50.704Z,31.50
2022-08-14T14:59:19.830Z,32.50
2022-08-14T15:01:50.477Z,31.30
2022-08-14T15:04:20.507Z,31.90
2022-08-14T15:06:50.201Z,31.80
2022-08-14T15:09:20.492Z,33.40
2022-08-14T15:11:50.789Z,34.20
2022-08-14T15:14:55.043Z,33.90
2022-08-14T15:17:06.645Z,35.10
2022-08-14T15:19:33.410Z,34.20
2022-08-14T15:22:00.322Z,35.90
2022-08-14T15:24:27.349Z,34.20
2022-08-14T15:26:58.552Z,35.30
2022-08-14T15:29:26.119Z,34.30
2022-08-14T15:31:54.189Z,34.10
2022-08-14T15:34:45.752Z,34.20
2022-08-14T15:37:13.146Z,34.80
2022-08-14T15:39:45.381Z,34.90
2022-08-14T15:42:15.896Z,34.40
2022-08-14T15:44:57.450Z,34.60
2022-08-14T15:47:28.862Z,35.60
2022-08-14T15:49:59.321Z,35.10
2022-08-14T15:52:32.869Z,35.10
2022-08-14T15:55:04.482Z,35.30
2022-08-14T15:57:32.045Z,35.90
2022-08-14T16:00:37.894Z,35.10
2022-08-14T16:03:04.811Z,35.30
2022-08-14T16:05:38.184Z,35.40
2022-08-14T16:08:27.282Z,34.40
2022-08-14T16:10:58.024Z,35.10
2022-08-14T16:13:39.407Z,35.20
2022-08-14T16:16:50.461Z,34.70
2022-08-14T16:18:59.078Z,35.60
2022-08-14T16:21:29.542Z,35.50
2022-08-14T16:24:00.465Z,35.30
2022-08-14T16:26:30.095Z,36.30
2022-08-14T16:29:04.992Z,36.00
2022-08-14T16:31:35.924Z,37.40
2022-08-14T16:34:44.384Z,37.10
2022-08-14T16:36:53.569Z,37.30
2022-08-14T16:39:21.237Z,36.50
2022-08-14T16:41:52.143Z,36.10
2022-08-14T16:44:23.266Z,36.80
2022-08-14T16:47:02.118Z,37.10
2022-08-14T16:50:03.419Z,37.50
2022-08-14T16:52:25.930Z,37.50
2022-08-14T16:55:09.425Z,37.50
2022-08-14T16:57:52.096Z,37.70
2022-08-14T17:00:28.708Z,38.00
2022-08-14T17:03:04.668Z,38.30
2022-08-14T17:05:41.100Z,39.30
2022-08-14T17:08:42.606Z,38.80
2022-08-14T17:11:01.560Z,38.60
2022-08-14T17:13:59.427Z,38.80
2022-08-14T17:16:25.079Z,39.10
2022-08-14T17:18:55.430Z,39.60
2022-08-14T17:21:31.551Z,40.00
2022-08-14T17:24:55.994Z,40.30
2022-08-14T17:26:54.997Z,40.10
2022-08-14T17:29:29.646Z,40.50
2022-08-14T17:32:28.254Z,40.10
2022-08-14T17:35:01.536Z,40.20
2022-08-14T17:37:34.188Z,41.00
2022-08-14T17:40:15.061Z,40.60
2022-08-14T17:42:53.363Z,40.60
2022-08-14T17:45:43.011Z,41.10
2022-08-14T17:49:13.741Z,42.00
2022-08-14T17:51:24.054Z,42.20
2022-08-14T17:54:02.704Z,42.60
2022-08-14T17:56:33.976Z,42.90
2022-08-14T17:59:04.055Z,43.00
2022-08-14T18:01:35.682Z,43.40
2022-08-14T18:04:05.679Z,43.80
2022-08-14T18:06:57.787Z,43.80
2022-08-14T18:09:35.347Z,44.00
2022-08-14T18:12:04.140Z,44.20
2022-08-14T18:14:31.959Z,45.20
2022-08-14T18:17:02.190Z,46.00
2022-08-14T18:19:29.978Z,46.30
2022-08-14T18:21:58.023Z,46.40
2022-08-14T18:24:29.554Z,46.90
2022-08-14T18:27:09.354Z,46.90
2022-08-14T18:29:42.539Z,47.70
2022-08-14T18:32:27.911Z,48.30
2022-08-14T18:34:58.860Z,48.00
2022-08-14T18:37:26.862Z,48.80
2022-08-14T18:40:02.924Z,48.90
2022-08-14T18:42:34.633Z,49.50
2022-08-14T18:45:02.184Z,50.40
2022-08-14T18:48:03.579Z,50.10
2022-08-14T18:50:31.140Z,50.60
2022-08-14T18:53:06.797Z,51.10
2022-08-14T18:55:34.028Z,51.60
2022-08-14T18:58:00.959Z,52.40
2022-08-14T19:00:35.228Z,52.30
2022-08-14T19:03:03.094Z,52.70
2022-08-14T19:05:47.861Z,53.20
2022-08-14T19:08:18.501Z,53.30
2022-08-14T19:10:52.365Z,54.00
2022-08-14T19:13:48.154Z,54.10
2022-08-14T19:16:16.910Z,54.90
2022-08-14T19:18:53.859Z,54.60
2022-08-14T19:21:27.672Z,55.70
2022-08-14T19:24:29.955Z,55.20
2022-08-14T19:27:14.482Z,55.10
2022-08-14T19:29:43.545Z,56.20
2022-08-14T19:32:37.481Z,56.30
2022-08-14T19:35:48.968Z,56.20
2022-08-14T19:38:33.820Z,57.10
2022-08-14T19:41:01.780Z,57.90
2022-08-14T19:43:56.192Z,57.70
2022-08-14T19:46:38.741Z,57.70
2022-08-14T19:49:08.779Z,58.80
2022-08-14T19:51:46.268Z,59.20
2022-08-14T19:54:15.713Z,58.70
2022-08-14T19:56:45.251Z,60.20
2022-08-14T19:59:17.248Z,60.60
2022-08-14T20:01:44.984Z,61.50
2022-08-14T20:04:46.555Z,59.90
2022-08-14T20:07:11.584Z,60.70
2022-08-14T20:11:04.630Z,60.80
2022-08-14T20:12:35.446Z,61.70
2022-08-14T20:15:08.560Z,62.00
2022-08-14T20:17:40.539Z,62.40
2022-08-14T20:20:15.804Z,61.90
2022-08-14T20:22:48.710Z,63.10
2022-08-14T20:25:16.971Z,63.40
2022-08-14T20:27:45.308Z,63.60
2022-08-14T20:30:33.992Z,63.70
2022-08-14T20:33:07.765Z,65.20
2022-08-14T20:35:41.711Z,65.40
2022-08-14T20:38:30.291Z,65.30
2022-08-14T20:40:59.439Z,65.90
2022-08-14T20:43:52.755Z,66.20
2022-08-14T20:46:29.549Z,65.60
2022-08-14T20:49:00.884Z,65.70
2022-08-14T20:51:36.986Z,65.50
2022-08-14T20:54:05.188Z,66.00
2022-08-14T20:56:33.752Z,66.60
2022-08-14T20:59:17.531Z,66.40
2022-08-14T21:01:48.598Z,66.60
2022-08-14T21:04:32.045Z,67.30
2022-08-14T21:07:25.676Z,68.30
2022-08-14T21:10:06.479Z,68.00
2022-08-14T21:13:09.296Z,67.90
2022-08-14T21:15:36.935Z,67.80
2022-08-14T21:18:05.298Z,68.60
2022-08-14T21:20:31.987Z,68.90
2022-08-14T21:23:01.225Z,68.60
2022-08-14T21:25:31.931Z,68.70
2022-08-14T21:28:01.072Z,68.80
2022-08-14T21:30:51.937Z,70.40
2022-08-14T21:33:15.998Z,70.40
2022-08-14T21:35:46.676Z,70.10
2022-08-14T21:38:18.182Z,70.80
2022-08-14T21:40:49.768Z,70.60
2022-08-14T21:43:19.514Z,70.90
2022-08-14T21:45:53.635Z,72.10
2022-08-14T21:48:21.894Z,70.70
2022-08-14T21:51:01.080Z,71.00
2022-08-14T21:53:59.122Z,72.90
2022-08-14T21:56:37.238Z,72.50
2022-08-14T21:59:07.429Z,72.30
2022-08-14T22:02:01.975Z,72.50
2022-08-14T22:04:32.716Z,73.00
2022-08-14T22:07:02.672Z,72.10
2022-08-14T22:09:36.380Z,73.30
2022-08-14T22:12:06.826Z,72.20
2022-08-14T22:14:43.203Z,72.00
2022-08-14T22:17:16.478Z,72.20
2022-08-14T22:19:54.078Z,73.70
2022-08-14T22:22:24.135Z,73.10
2022-08-14T22:24:59.766Z,73.30
2022-08-14T22:27:29.435Z,73.40
2022-08-14T22:29:58.416Z,73.80
2022-08-14T22:32:35.481Z,74.40
2022-08-14T22:35:15.889Z,74.70
2022-08-14T22:37:44.885Z,75.80
2022-08-14T22:40:45.978Z,74.60
2022-08-14T22:43:07.989Z,75.60
2022-08-14T22:45:36.597Z,74.40
2022-08-14T22:48:05.192Z,75.50
2022-08-14T22:50:53.127Z,75.80
2022-08-14T22:53:21.968Z,74.80
2022-08-14T22:55:52.372Z,75.50
2022-08-14T22:58:20.379Z,74.90
2022-08-14T23:01:01.516Z,75.40
2022-08-14T23:03:29.082Z,77.10
2022-08-14T23:05:57.050Z,77.50
2022-08-14T23:08:58.977Z,76.00
2022-08-14T23:11:13.157Z,76.00
2022-08-14T23:13:43.445Z,76.40
2022-08-14T23:16:20.147Z,75.90
2022-08-14T23:18:53.851Z,77.00
2022-08-14T23:21:24.113Z,77.40
2022-08-14T23:23:54.957Z,77.70
2022-08-14T23:26:47.941Z,79.10
2022-08-14T23:29:11.586Z,78.00
2022-08-14T23:31:39.346Z,77.50
2022-08-14T23:34:07.689Z,77.00
2022-08-14T23:36:52.529Z,76.50
2022-08-14T23:39:21.333Z,77.40
2022-08-14T23:41:53.760Z,77.90
2022-08-14T23:44:22.222Z,78.40
2022-08-14T23:46:49.532Z,78.60
2022-08-14T23:49:23.027Z,78.00
2022-08-14T23:52:49.489Z,78.00
2022-08-14T23:54:49.201Z,77.60
2022-08-14T23:57:19.248Z,77.90
2022-08-14T23:59:54.652Z,78.90
